Portada
METAR-TAF:

METAR-TAF

Aeropuertos :

Aeropuerto Internacional de Kuwait

Ciudad de Kuwait, Kuwait

latitud: 29-13N, longitud: 047-59E, altitud: 55 m

Observación

El informe se hizo hace 58 minutos, a las 20:00 UTC
Viento 13 kt del norte-noroeste
Temperatura 10°C
Humedad 34%
Presión 1027 hPa
Visibilidad 10 km o más
sin nubes por debajo de 1500 m y sin presencia de cumulonimbus.

METAR: OKBK 212000Z 34013KT CAVOK 10/M05 Q1027 NOSIG

Hora: 23:58 (20:58 UTC)

Pronóstico

El informe se hizo hace 4 horas y 13 minutos, a las 16:45 UTC
Pronóstico válido del 21 a las 18 UTC al 22 a las 24 UTC
Viento 15 kt del norte-noroeste
Visibilidad: 8000 m

TAF: OKBK 211645Z 2118/2224 33015KT 8000 NSC

Observaciones y pronósticos meteorológicos de más de 4000 aeropuertos (mensajes METAR y TAF).

Los puntos amarillos y rojos representan las estaciones disponibles.

Ponga el ratón en el punto deseado para ver el nombre de la estación.

Haga clic para ver las observaciones y los pronósticos meteorológicos.

Para cambiar el mapa : haga clic en los botones verdes con una cruz de color negro para hacer un zoom, en el botón verde con un guión para alejar o en las flechas verdes para mapas adyacentes.


METAR-TAF: